Impacts METAR Board
IDs:

KBWI - Baltimore-Washington, MD, US

Updated at: 0300 UTC 06 Dec 2019
Potential Impact None Slight Moderate High
Time 05/15Z 05/16Z 05/17Z 05/18Z 05/19Z 05/20Z 05/21Z 05/22Z 05/23Z 06/00Z 06/01Z 06/02Z 06/03Z
Temp42 45 44 47 46 46 46 43 42 38 38 36 32
Dewpt24 22 23 23 22 22 21 21 21 22 21 21 22
Altim29.92 29.94 29.94 29.93 29.95 29.97 30.01 30.03 30.07 30.09 30.12 30.14 30.15
VIS10 10 10 10 10 10 10 10 10 10 10 10 10
CIG-- -- 50 50 -- -- -- -- -- -- -- -- --
CoverSCTSCTBKNBKNSCTFEWFEWFEWCLRCLRCLRFEWFEW
FltCatVFRVFRVFRVFRVFRVFRVFRVFRVFRVFRVFRVFRVFR
WX--------------------------
WDir300300300280300270280290290250000
WSpd16 18 13 16 15 18 13 10 10 4 0 0 0
WGst25 24 22 27 23 22 -- 18 -- -- -- -- --
Raw hourly METARs
KBWI 051454Z 30016G25KT 10SM SCT047 SCT100 06/M04 A2992 RMK AO2 SLP133 T00561044 51032
KBWI 051554Z 30018G24KT 10SM SCT050 07/M06 A2994 RMK AO2 PK WND 31032/1544 RAB06E32 SLP137 P0000 T00721056
KBWI 051658Z 30013G22KT 10SM BKN050 07/M05 A2994 RMK AO2 T00671050
KBWI 051754Z 28016G27KT 10SM BKN050 08/M05 A2993 RMK AO2 PK WND 27027/1747 SLP135 60000 T00831050 10089 20028 50003
KBWI 051856Z 30015G23KT 10SM SCT055 08/M06 A2995 RMK AO2 T00781056
KBWI 051954Z 27018G22KT 10SM FEW055 08/M06 A2997 RMK AO2 SLP150 T00781056
KBWI 052054Z 28013KT 10SM FEW055 08/M06 A3001 RMK AO2 SLP161 T00781061 53025 $
KBWI 052154Z 29010G18KT 10SM FEW060 06/M06 A3003 RMK AO2 SLP170 T00611061 /
KBWI 052254Z 29010KT 10SM CLR 06/M06 A3007 RMK AO2 SLP182 T00561061 $
KBWI 052354Z 25004KT 10SM CLR 03/M06 A3009 RMK AO2 SLP191 T00331056 10089 20033 52030 $
KBWI 060054Z 00000KT 10SM CLR 03/M06 A3012 RMK AO2 SLP200 T00331061 $
KBWI 060154Z COR 00000KT 10SM FEW200 02/M06 A3014 RMK AO2 SLP205 T00221061 $
KBWI 060254Z 00000KT 10SM FEW200 00/M06 A3015 RMK AO2 SLP209 T00001056 51017 $



Page loaded:  03:45 UTC  |   07:45 PM Pacific  |   08:45 PM Mountain  |   09:45 PM Central  |   10:45 PM Eastern

 

ADVISORIES

FORECASTS

FORECASTS

OBSERVATIONS

USER TOOLS

ABOUT US